Meath Environmental Platform

Observations for Trim Market St

Time AQI Temp °C Hum % Pres Pa CO μg/m³ H₂S μg/m³ NO μg/m³ NO₂ μg/m³ O₃ μg/m³ SO₂ μg/m³ PM1 μg/m³ PM2.5 μg/m³ PM10 μg/m³
Wednesday 26 August 2026
13:49 2 23.2 70 46,828 0.27 0 1.96 13.73 38.23 0 8.55 10.36 15.69
13:48 2 23.1 70 46,435 0.29 0 1.95 13.9 30.8 0 9.26 10.83 15.05
13:47 2 23.1 70 46,137 0.44 0 2.46 15.25 34.55 0 8.55 11.31 16.3
13:46 2 23 70 45,208 0.27 0 2.33 14.1 36.52 0 9.98 11.3 15.66
13:44 2 22.8 71 44,104 0.22 0 1.67 13.18 33.05 0 7.84 10.79 15.01
13:43 2 22.8 71 43,135 0.23 0 1.66 13.28 33.93 0 9.26 10.78 15
13:41 2 22.7 71 42,008 0.22 0 1.2 12.68 35.49 0 7.84 8.82 14.98
13:37 2 22.4 72 37,464 0.24 0 1.56 12.43 34.79 0 7.84 8.76 12.45
13:34 2 22.2 72 32,390 0.26 0 1.13 12.35 37.06 0 7.84 10.17 14.26
13:28 2 21.9 74 24,904 0.24 0 2.01 13.78 38.84 0 8.55 9.62 14.8
13:27 2 21.8 74 23,754 0.26 0 2.43 13.25 39.81 0 7.13 8.66 13.58
13:26 2 21.8 74 22,793 0.34 0 2.86 14.22 40.18 0 7.13 11.53 16
13:25 2 21.7 74 21,589 0.43 0 2.36 14.23 48.36 0 7.13 8.64 12.36
13:24 2 21.6 74 20,970 0.37 0 1.63 13.47 42.4 0 7.13 8.16 12.36
13:23 2 21.5 74 20,166 0.22 0 1.75 12.6 48 0 7.84 8.15 12.96
13:22 2 21.5 74 18,786 0.24 0 1.34 12.7 41.3 0 9.98 11.5 17.77
13:21 2 21.4 74 16,900 0.26 0 1.58 13.06 40.4 0 9.26 13.41 19.56
13:20 2 21.4 74 14,695 0.26 0 1.3 13.46 39.71 0 9.26 10.04 14.74
13:19 2 21.3 74 13,305 0.22 0 1.73 12.48 41.91 0 7.13 10.04 14.13
13:18 2 21.2 75 12,298 0.21 0 1.05 13.4 40.96 0 7.13 8.11 12.33